Time;durP1;ratioP1;P1;durP2;ratioP2;P2;SDS_P1;SDS_P2;PMS_P1;PMS_P2;Temp;Humidity;BMP_temperature;BMP_pressure;BME280_temperature;BME280_humidity;BME280_pressure;Samples;Min_cycle;Max_cycle;Signal;HPM_P1;HPM_P2
2023/01/02 00:00:50;;;;;;;19.70;14.20;;;5.70;99.90;;;;;;5016133;28;20197;-75
2023/01/02 00:03:16;;;;;;;17.30;13.30;;;5.70;99.90;;;;;;5007467;28;20239;-75
2023/01/02 00:05:41;;;;;;;15.95;12.18;;;5.70;99.90;;;;;;5013838;28;20273;-75
2023/01/02 00:08:07;;;;;;;17.52;13.63;;;5.70;99.90;;;;;;5013914;28;20185;-74
2023/01/02 00:10:33;;;;;;;15.48;12.88;;;5.70;99.90;;;;;;5013790;28;20607;-76
2023/01/02 00:12:58;;;;;;;16.50;12.68;;;5.70;99.90;;;;;;5009098;28;20242;-76
2023/01/02 00:15:24;;;;;;;16.13;11.60;;;5.70;99.90;;;;;;5010561;28;20231;-76
2023/01/02 00:17:49;;;;;;;15.63;11.73;;;5.80;99.90;;;;;;5013917;28;20188;-76
2023/01/02 00:20:15;;;;;;;14.68;12.02;;;5.90;99.90;;;;;;5011671;28;20606;-76
2023/01/02 00:22:40;;;;;;;17.23;12.88;;;5.90;99.90;;;;;;5008308;28;20204;-76
2023/01/02 00:25:06;;;;;;;14.77;12.60;;;5.80;99.90;;;;;;5006172;28;20248;-76
2023/01/02 00:27:32;;;;;;;14.88;12.18;;;5.80;99.90;;;;;;5009157;28;20235;-76
2023/01/02 00:29:58;;;;;;;15.70;12.70;;;5.80;99.90;;;;;;5009604;28;20228;-76
2023/01/02 00:32:23;;;;;;;16.40;12.27;;;5.70;99.90;;;;;;5011964;28;20688;-76
2023/01/02 00:34:49;;;;;;;16.88;12.40;;;5.70;99.90;;;;;;5013705;28;20169;-76
2023/01/02 00:37:14;;;;;;;15.70;12.25;;;5.60;99.90;;;;;;5009464;28;20189;-75
2023/01/02 00:39:40;;;;;;;16.95;13.23;;;5.50;99.90;;;;;;5010481;28;20180;-75
2023/01/02 00:42:05;;;;;;;15.18;12.60;;;5.50;99.90;;;;;;5009324;28;20291;-75
2023/01/02 00:44:31;;;;;;;17.42;12.27;;;5.40;99.90;;;;;;5015862;28;20208;-75
2023/01/02 00:46:57;;;;;;;14.15;11.80;;;5.30;99.90;;;;;;5015365;28;20188;-75
2023/01/02 00:49:22;;;;;;;15.10;12.52;;;5.30;99.90;;;;;;5015220;28;20619;-75
2023/01/02 00:51:48;;;;;;;14.85;11.90;;;5.30;99.90;;;;;;5013230;28;20189;-75
2023/01/02 00:54:13;;;;;;;14.82;12.15;;;5.20;99.90;;;;;;5016256;28;20174;-75
2023/01/02 00:56:39;;;;;;;15.10;12.98;;;5.10;99.90;;;;;;5013548;28;20264;-76
2023/01/02 00:59:04;;;;;;;13.43;12.02;;;5.10;99.90;;;;;;5016842;28;20183;-76
2023/01/02 01:01:30;;;;;;;16.50;13.30;;;5.00;99.90;;;;;;5011858;28;20291;-76
2023/01/02 01:03:56;;;;;;;15.63;12.52;;;4.90;99.90;;;;;;5016235;28;20197;-75
2023/01/02 01:06:21;;;;;;;14.95;13.10;;;4.90;99.90;;;;;;5017155;28;20201;-75
2023/01/02 01:08:47;;;;;;;16.70;12.82;;;4.90;99.90;;;;;;5015449;28;20205;-75
2023/01/02 01:11:14;;;;;;;14.20;11.90;;;4.90;99.90;;;;;;5015045;28;20209;-76
2023/01/02 01:13:40;;;;;;;16.52;12.80;;;4.90;99.90;;;;;;5014754;28;20240;-75
2023/01/02 01:16:08;;;;;;;18.95;12.60;;;5.00;99.90;;;;;;5012951;28;20181;-75
2023/01/02 01:18:34;;;;;;;17.60;12.85;;;5.10;99.90;;;;;;5013027;28;20228;-75
2023/01/02 01:21:08;;;;;;;15.38;12.02;;;5.20;99.90;;;;;;5015742;28;20205;-76
2023/01/02 01:23:33;;;;;;;14.68;12.25;;;5.20;99.90;;;;;;5016443;28;20176;-76
2023/01/02 01:26:04;;;;;;;15.20;12.23;;;5.30;99.90;;;;;;5009086;28;20244;-75
2023/01/02 01:28:29;;;;;;;15.70;13.35;;;5.30;99.90;;;;;;5015496;28;20554;-75
2023/01/02 01:30:55;;;;;;;15.48;11.60;;;5.40;99.90;;;;;;5012500;28;20197;-76
2023/01/02 01:33:20;;;;;;;16.88;13.10;;;5.30;99.90;;;;;;5016124;28;20212;-75
2023/01/02 01:35:46;;;;;;;14.35;12.65;;;5.30;99.90;;;;;;5015835;28;20178;-75
2023/01/02 01:38:11;;;;;;;15.25;12.07;;;5.20;99.90;;;;;;5012564;28;20197;-76
2023/01/02 01:40:38;;;;;;;16.88;11.82;;;5.30;99.90;;;;;;5017363;28;20263;-76
2023/01/02 01:43:11;;;;;;;19.23;13.65;;;5.20;99.90;;;;;;5012374;28;20228;-76
2023/01/02 01:45:40;;;;;;;17.38;13.88;;;5.20;99.90;;;;;;5017051;28;20177;-75
2023/01/02 01:48:11;;;;;;;16.23;13.13;;;5.30;99.90;;;;;;5017332;28;21740;-76
2023/01/02 01:50:36;;;;;;;16.13;12.35;;;5.20;99.90;;;;;;5012355;28;20176;-76
2023/01/02 01:53:14;;;;;;;15.80;12.80;;;5.30;99.90;;;;;;5019299;28;20174;-76
2023/01/02 01:56:02;;;;;;;13.25;11.45;;;5.30;99.90;;;;;;5014164;28;20204;-75
2023/01/02 01:58:40;;;;;;;15.52;12.48;;;5.30;99.90;;;;;;5014358;28;20240;-76
2023/01/02 02:01:06;;;;;;;17.08;12.35;;;5.30;99.90;;;;;;5012010;28;20197;-76
2023/01/02 02:03:33;;;;;;;16.48;11.77;;;5.40;99.90;;;;;;5015330;28;20201;-76
2023/01/02 02:06:02;;;;;;;15.35;11.55;;;5.30;99.90;;;;;;5013984;28;20185;-76
2023/01/02 02:08:45;;;;;;;14.93;11.80;;;5.40;99.90;;;;;;5015287;28;20216;-76
2023/01/02 02:11:12;;;;;;;14.50;11.18;;;5.40;99.90;;;;;;5016405;28;20203;-76
2023/01/02 02:13:39;;;;;;;16.50;12.52;;;5.40;99.90;;;;;;5011174;28;20179;-75
2023/01/02 02:16:16;;;;;;;16.90;12.85;;;5.40;99.90;;;;;;5014841;28;20220;-74
2023/01/02 02:19:19;;;;;;;17.05;12.57;;;5.40;99.90;;;;;;5014720;28;20193;-75
2023/01/02 02:21:48;;;;;;;16.23;12.15;;;5.50;99.90;;;;;;5016522;28;20203;-75
2023/01/02 02:24:53;;;;;;;12.55;11.25;;;5.50;99.90;;;;;;5014481;28;20188;-75
2023/01/02 02:27:34;;;;;;;14.15;11.73;;;5.50;99.90;;;;;;5006359;28;20220;-75
2023/01/02 02:30:17;;;;;;;14.52;12.07;;;5.50;99.90;;;;;;5014810;28;20668;-75
2023/01/02 02:33:19;;;;;;;14.80;11.57;;;5.40;99.90;;;;;;5012181;28;21289;-75
2023/01/02 02:36:03;;;;;;;13.80;11.95;;;5.40;99.90;;;;;;5018154;28;20546;-75
2023/01/02 02:38:57;;;;;;;15.85;12.05;;;5.40;99.90;;;;;;5014487;28;20573;-75
2023/01/02 02:41:25;;;;;;;17.70;12.85;;;5.30;99.90;;;;;;5013962;28;20753;-75
2023/01/02 02:44:21;;;;;;;15.30;12.50;;;5.40;99.90;;;;;;5009901;28;20238;-75
2023/01/02 02:47:06;;;;;;;15.68;12.05;;;5.30;99.90;;;;;;5017962;28;20185;-75
2023/01/02 02:50:02;;;;;;;16.67;12.60;;;5.30;99.90;;;;;;5014757;28;20716;-75
2023/01/02 02:52:53;;;;;;;16.45;12.77;;;5.30;99.90;;;;;;5012243;28;20202;-75
2023/01/02 02:55:24;;;;;;;15.07;11.43;;;5.30;99.90;;;;;;5016916;28;20635;-75
2023/01/02 02:57:51;;;;;;;15.07;12.13;;;5.30;99.90;;;;;;5013723;28;20211;-75
2023/01/02 03:00:21;;;;;;;14.57;12.27;;;5.30;99.90;;;;;;5023364;28;20271;-75
2023/01/02 03:02:47;;;;;;;15.88;12.32;;;5.30;99.90;;;;;;5010715;28;20201;-75
2023/01/02 03:05:21;;;;;;;16.88;12.23;;;5.30;99.90;;;;;;5016673;28;20739;-75
2023/01/02 03:08:21;;;;;;;14.38;11.63;;;5.30;99.90;;;;;;5029608;28;20577;-75
2023/01/02 03:11:00;;;;;;;15.52;12.27;;;5.30;99.90;;;;;;5015303;28;20204;-75
2023/01/02 03:13:42;;;;;;;15.57;12.80;;;5.20;99.90;;;;;;5020554;28;20677;-75
2023/01/02 03:16:25;;;;;;;14.98;11.63;;;5.20;99.90;;;;;;5014505;28;20191;-76
2023/01/02 03:19:06;;;;;;;14.02;11.82;;;5.20;99.90;;;;;;5011350;28;20191;-75
2023/01/02 03:21:37;;;;;;;17.90;14.35;;;5.20;99.90;;;;;;5018051;28;20188;-75
2023/01/02 03:24:09;;;;;;;15.57;11.98;;;5.10;99.90;;;;;;5021373;28;20252;-74
2023/01/02 03:26:37;;;;;;;16.67;13.18;;;5.00;99.90;;;;;;5010691;28;20410;-75
2023/01/02 03:29:09;;;;;;;15.93;12.55;;;5.00;99.90;;;;;;5013678;28;20247;-75
2023/01/02 03:31:39;;;;;;;16.85;13.30;;;5.00;99.90;;;;;;5012667;28;20205;-75
2023/01/02 03:34:12;;;;;;;14.45;12.18;;;5.00;99.90;;;;;;5014758;28;20265;-75
2023/01/02 03:36:40;;;;;;;15.25;12.40;;;5.00;99.90;;;;;;5016684;28;20177;-75
2023/01/02 03:39:16;;;;;;;17.67;13.70;;;5.00;99.90;;;;;;5012009;28;20645;-75
2023/01/02 03:41:49;;;;;;;15.77;12.75;;;4.90;99.90;;;;;;5011952;28;20200;-75
2023/01/02 03:44:16;;;;;;;14.32;11.43;;;4.90;99.90;;;;;;5013331;28;20187;-75
2023/01/02 03:46:52;;;;;;;17.88;13.25;;;4.90;99.90;;;;;;5016992;28;20247;-75
2023/01/02 03:49:24;;;;;;;15.63;12.25;;;4.90;99.90;;;;;;5016653;28;20211;-75
2023/01/02 03:51:50;;;;;;;17.92;12.88;;;4.90;99.90;;;;;;5013496;28;20225;-75
2023/01/02 03:54:17;;;;;;;17.38;12.55;;;4.80;99.90;;;;;;5010393;28;20276;-76
2023/01/02 03:57:12;;;;;;;15.93;13.05;;;4.80;99.90;;;;;;5025199;28;20174;-76
2023/01/02 03:59:46;;;;;;;18.40;13.68;;;4.80;99.90;;;;;;5021973;28;20620;-75
2023/01/02 04:02:25;;;;;;;17.02;13.05;;;4.80;99.90;;;;;;5012767;28;20206;-76
2023/01/02 04:04:53;;;;;;;16.05;11.77;;;4.70;99.90;;;;;;5021123;28;20223;-76
2023/01/02 04:07:39;;;;;;;16.33;12.90;;;4.80;99.90;;;;;;5011771;28;20190;-76
2023/01/02 04:10:07;;;;;;;18.58;13.43;;;4.80;99.90;;;;;;5026196;28;20693;-75
2023/01/02 04:12:35;;;;;;;17.17;12.05;;;4.70;99.90;;;;;;5017531;28;20200;-76
2023/01/02 04:15:07;;;;;;;16.90;12.75;;;4.80;99.90;;;;;;5015893;28;20260;-76
2023/01/02 04:17:40;;;;;;;17.20;12.68;;;4.80;99.90;;;;;;5015613;28;20173;-75
2023/01/02 04:20:12;;;;;;;15.15;11.85;;;4.80;99.90;;;;;;5013633;28;20212;-75
2023/01/02 04:22:51;;;;;;;17.20;12.75;;;4.70;99.90;;;;;;5013451;28;20202;-75
2023/01/02 04:25:18;;;;;;;15.02;12.50;;;4.70;99.90;;;;;;5016225;28;20172;-75
2023/01/02 04:27:53;;;;;;;18.92;13.90;;;4.70;99.90;;;;;;5013501;28;20200;-75
2023/01/02 04:30:19;;;;;;;16.67;14.20;;;4.70;99.90;;;;;;5013543;28;20212;-75
2023/01/02 04:32:47;;;;;;;15.68;13.02;;;4.70;99.90;;;;;;5013062;28;20193;-75
2023/01/02 04:35:19;;;;;;;18.35;13.10;;;4.60;99.90;;;;;;5013380;28;20675;-75
2023/01/02 04:37:45;;;;;;;18.35;13.20;;;4.60;99.90;;;;;;5014576;28;20617;-75
2023/01/02 04:40:18;;;;;;;17.40;13.48;;;4.60;99.90;;;;;;5012167;28;20230;-76
2023/01/02 04:42:44;;;;;;;18.63;13.32;;;4.60;99.90;;;;;;5014651;28;20729;-75
2023/01/02 04:45:10;;;;;;;16.92;12.63;;;4.60;99.90;;;;;;5004578;28;20189;-76
2023/01/02 04:47:35;;;;;;;17.05;13.65;;;4.60;99.90;;;;;;5006313;28;20189;-75
2023/01/02 04:50:03;;;;;;;16.88;13.23;;;4.70;99.90;;;;;;5010827;28;20621;-75
2023/01/02 04:52:29;;;;;;;17.77;13.05;;;4.70;99.90;;;;;;5012417;28;20703;-76
2023/01/02 04:54:54;;;;;;;17.90;13.15;;;4.70;99.90;;;;;;5008384;28;20260;-75
2023/01/02 04:57:20;;;;;;;18.60;14.10;;;4.70;99.90;;;;;;5011413;28;20635;-75
2023/01/02 04:59:45;;;;;;;18.45;13.68;;;4.70;99.90;;;;;;5016595;28;20262;-75
2023/01/02 05:02:11;;;;;;;15.23;13.25;;;4.70;99.90;;;;;;5013534;28;20284;-75
2023/01/02 05:04:36;;;;;;;17.33;12.90;;;4.70;99.90;;;;;;5017186;28;20204;-75
2023/01/02 05:07:02;;;;;;;17.38;13.10;;;4.70;99.90;;;;;;5014435;28;20533;-75
2023/01/02 05:09:28;;;;;;;17.00;13.40;;;4.70;99.90;;;;;;5011315;28;20201;-76
2023/01/02 05:11:53;;;;;;;16.67;12.48;;;4.70;99.90;;;;;;5006220;28;20570;-75
2023/01/02 05:14:19;;;;;;;16.02;12.32;;;4.70;99.90;;;;;;5015950;28;20176;-75
2023/01/02 05:16:45;;;;;;;15.15;12.38;;;4.70;99.90;;;;;;5013820;28;20208;-75
2023/01/02 05:19:11;;;;;;;17.40;13.63;;;4.80;99.90;;;;;;5013724;28;20209;-76
2023/01/02 05:24:21;;;;;;;17.60;13.18;;;4.80;99.90;;;;;;5015458;28;20188;-75
2023/01/02 05:26:46;;;;;;;16.92;12.68;;;4.80;99.90;;;;;;5011729;28;20177;-75
2023/01/02 05:29:12;;;;;;;18.98;13.63;;;4.80;99.90;;;;;;5011023;28;20217;-75
2023/01/02 05:31:37;;;;;;;14.90;12.65;;;4.80;99.90;;;;;;5016803;28;20196;-75
2023/01/02 05:34:03;;;;;;;17.17;13.07;;;4.90;99.90;;;;;;5019201;28;20600;-76
2023/01/02 05:36:29;;;;;;;16.58;13.25;;;4.90;99.90;;;;;;5018998;28;20181;-75
2023/01/02 05:38:55;;;;;;;17.25;13.27;;;4.80;99.90;;;;;;5016733;28;20197;-75
2023/01/02 05:41:22;;;;;;;18.00;13.40;;;4.80;99.90;;;;;;5016389;28;20209;-75
2023/01/02 05:43:47;;;;;;;16.75;13.07;;;4.80;99.90;;;;;;5014607;28;20210;-76
2023/01/02 05:46:18;;;;;;;17.88;11.93;;;4.80;99.90;;;;;;5016408;28;20302;-77
2023/01/02 05:48:44;;;;;;;15.90;12.70;;;4.80;99.90;;;;;;5013365;28;20208;-75
2023/01/02 05:51:12;;;;;;;18.58;13.85;;;4.80;99.90;;;;;;5011421;28;20668;-76
2023/01/02 05:53:38;;;;;;;19.00;13.63;;;4.70;99.90;;;;;;5022766;28;20176;-77
2023/01/02 05:56:09;;;;;;;14.45;12.35;;;4.80;99.90;;;;;;5013571;28;20231;-76
2023/01/02 05:58:35;;;;;;;17.20;13.55;;;4.80;99.90;;;;;;5009459;28;20185;-77
2023/01/02 06:01:05;;;;;;;17.58;13.45;;;4.70;99.90;;;;;;5012043;28;20250;-77
2023/01/02 06:03:31;;;;;;;17.92;13.00;;;4.70;99.90;;;;;;5015804;28;20189;-77
2023/01/02 06:06:02;;;;;;;18.42;12.90;;;4.70;99.90;;;;;;5021217;28;20663;-75
2023/01/02 06:08:27;;;;;;;18.88;14.27;;;4.70;99.90;;;;;;5014431;28;20188;-75
2023/01/02 06:10:53;;;;;;;20.00;14.00;;;4.70;99.90;;;;;;5013758;28;20201;-74
2023/01/02 06:13:18;;;;;;;17.67;13.50;;;4.70;99.90;;;;;;5015713;28;20275;-75
2023/01/02 06:15:44;;;;;;;16.98;13.68;;;4.70;99.90;;;;;;5017690;28;20184;-75
2023/01/02 06:18:09;;;;;;;22.65;13.57;;;4.70;99.90;;;;;;5019359;28;20854;-75
2023/01/02 06:20:35;;;;;;;14.00;12.45;;;4.70;99.90;;;;;;5013418;28;20681;-74
2023/01/02 06:23:00;;;;;;;17.77;13.80;;;4.70;99.90;;;;;;5013166;28;20190;-75
2023/01/02 06:25:26;;;;;;;17.23;14.23;;;4.80;99.90;;;;;;5014682;28;20189;-75
2023/01/02 06:27:51;;;;;;;20.00;14.05;;;4.80;99.90;;;;;;5015963;28;20248;-76
2023/01/02 06:30:17;;;;;;;18.00;13.32;;;4.80;99.90;;;;;;5011476;28;20197;-76
2023/01/02 06:32:42;;;;;;;22.38;14.57;;;4.90;99.90;;;;;;5013647;28;20695;-78
2023/01/02 06:35:09;;;;;;;18.83;14.30;;;5.00;99.90;;;;;;5009995;28;20184;-77
2023/01/02 06:37:35;;;;;;;19.27;14.23;;;5.00;99.90;;;;;;5011385;28;20173;-76
2023/01/02 06:40:00;;;;;;;19.50;15.32;;;5.00;99.90;;;;;;5009702;28;20539;-76
2023/01/02 06:42:26;;;;;;;18.95;14.27;;;5.10;99.90;;;;;;5014310;28;20289;-75
2023/01/02 06:44:51;;;;;;;17.85;14.15;;;5.00;99.90;;;;;;5019662;28;20181;-75
2023/01/02 06:47:17;;;;;;;17.77;13.05;;;4.90;99.90;;;;;;5019757;28;20181;-75
2023/01/02 06:49:43;;;;;;;16.90;13.32;;;4.90;99.90;;;;;;5013562;28;20201;-79
2023/01/02 06:52:08;;;;;;;19.83;14.15;;;4.80;99.90;;;;;;5003870;28;20288;-74
2023/01/02 06:54:34;;;;;;;19.10;14.10;;;4.70;99.90;;;;;;5007096;28;20185;-74
2023/01/02 06:56:59;;;;;;;17.08;13.80;;;4.70;99.90;;;;;;5013397;28;20710;-79
2023/01/02 06:59:25;;;;;;;15.38;13.75;;;4.70;99.90;;;;;;5007643;28;20189;-77
2023/01/02 07:01:50;;;;;;;19.85;13.80;;;4.50;99.90;;;;;;5012633;28;20212;-80
2023/01/02 07:04:16;;;;;;;21.02;15.13;;;4.50;99.90;;;;;;5017949;28;20201;-79
2023/01/02 07:06:42;;;;;;;18.80;14.48;;;4.50;99.90;;;;;;5021106;28;20176;-81
2023/01/02 07:09:08;;;;;;;19.42;15.23;;;4.40;99.90;;;;;;5015673;28;20574;-81
2023/01/02 07:11:34;;;;;;;19.67;14.15;;;4.30;99.90;;;;;;5015240;28;20228;-81
2023/01/02 07:14:00;;;;;;;18.88;13.38;;;4.20;99.90;;;;;;5019241;28;20188;-81
2023/01/02 07:16:26;;;;;;;18.75;14.70;;;4.30;99.90;;;;;;5022131;28;20180;-80
2023/01/02 07:18:52;;;;;;;18.63;13.63;;;4.30;99.90;;;;;;5009186;28;20231;-75
2023/01/02 07:21:18;;;;;;;18.88;13.65;;;4.30;99.90;;;;;;5008878;28;20727;-74
2023/01/02 07:23:43;;;;;;;15.77;12.45;;;4.30;99.90;;;;;;5014656;28;20192;-74
2023/01/02 07:26:10;;;;;;;18.20;12.15;;;4.40;99.90;;;;;;5009085;28;20196;-74
2023/01/02 07:28:36;;;;;;;17.35;14.02;;;4.50;99.90;;;;;;5013728;28;20189;-74
2023/01/02 07:31:10;;;;;;;14.32;12.32;;;4.50;99.90;;;;;;5011882;28;20266;-74
2023/01/02 07:33:36;;;;;;;15.52;13.55;;;4.60;99.90;;;;;;5014224;28;20283;-74
2023/01/02 07:36:04;;;;;;;15.40;12.48;;;4.60;99.90;;;;;;5007990;28;20269;-74
2023/01/02 07:38:30;;;;;;;16.10;12.43;;;4.70;99.90;;;;;;5013675;28;20177;-74
2023/01/02 07:40:56;;;;;;;17.08;13.02;;;4.70;99.90;;;;;;5005973;28;20669;-75
2023/01/02 07:43:22;;;;;;;15.02;12.70;;;4.70;99.90;;;;;;5012627;28;20204;-75
2023/01/02 07:45:48;;;;;;;18.67;13.77;;;4.80;99.90;;;;;;5016468;28;20181;-76
2023/01/02 07:48:13;;;;;;;17.42;13.55;;;4.80;99.90;;;;;;5009435;28;20216;-74
2023/01/02 07:50:39;;;;;;;17.80;12.98;;;4.80;99.90;;;;;;5016844;28;20208;-74
2023/01/02 07:53:05;;;;;;;17.40;13.80;;;4.90;99.90;;;;;;5010286;28;20180;-75
2023/01/02 07:55:31;;;;;;;20.85;14.32;;;4.90;99.90;;;;;;5007185;28;20181;-75
2023/01/02 07:57:56;;;;;;;18.23;12.95;;;5.00;99.90;;;;;;5013954;28;20182;-76
2023/01/02 08:00:22;;;;;;;15.73;13.30;;;5.10;99.90;;;;;;5011587;28;20559;-75
2023/01/02 08:02:48;;;;;;;19.40;12.82;;;5.10;99.90;;;;;;5014573;28;20334;-75
2023/01/02 08:05:15;;;;;;;14.05;12.52;;;5.20;99.90;;;;;;5013697;28;20192;-75
2023/01/02 08:07:43;;;;;;;18.10;13.38;;;5.20;99.90;;;;;;5011093;28;20188;-75
2023/01/02 08:10:09;;;;;;;15.15;11.52;;;5.30;99.90;;;;;;5008889;28;20209;-75
2023/01/02 08:12:35;;;;;;;14.07;12.43;;;5.30;99.90;;;;;;5010027;28;20227;-76
2023/01/02 08:15:00;;;;;;;17.65;12.68;;;5.20;99.90;;;;;;5012236;28;20181;-75
2023/01/02 08:17:26;;;;;;;14.98;12.45;;;5.20;99.90;;;;;;5015119;28;20185;-77
2023/01/02 08:19:51;;;;;;;13.98;12.25;;;5.20;99.90;;;;;;5001803;28;20189;-76
2023/01/02 08:22:17;;;;;;;17.70;13.90;;;5.20;99.90;;;;;;5008583;28;20228;-76
2023/01/02 08:24:42;;;;;;;15.90;11.95;;;5.10;99.90;;;;;;5010456;28;20189;-75
2023/01/02 08:27:08;;;;;;;14.32;11.57;;;5.20;99.90;;;;;;5008558;28;20224;-75
2023/01/02 08:29:33;;;;;;;14.88;12.52;;;5.30;99.90;;;;;;5011560;28;20208;-75
2023/01/02 08:31:59;;;;;;;16.63;12.52;;;5.40;99.90;;;;;;5012437;28;20201;-75
2023/01/02 08:34:25;;;;;;;15.13;12.60;;;5.40;99.90;;;;;;5010008;28;20222;-75
2023/01/02 08:36:51;;;;;;;15.98;12.35;;;5.40;99.90;;;;;;5010073;28;20203;-73
2023/01/02 08:39:16;;;;;;;14.93;12.48;;;5.60;99.90;;;;;;5015006;28;20640;-76
2023/01/02 08:41:42;;;;;;;12.93;9.68;;;5.70;99.90;;;;;;5014097;28;20216;-76
2023/01/02 08:44:08;;;;;;;14.00;11.60;;;5.70;99.90;;;;;;5013147;28;20224;-77
2023/01/02 08:46:34;;;;;;;15.75;11.70;;;5.80;99.90;;;;;;5010373;28;20177;-76
2023/01/02 08:49:00;;;;;;;14.02;12.52;;;5.90;99.90;;;;;;5017741;28;20196;-77
2023/01/02 08:51:25;;;;;;;14.07;11.93;;;5.90;99.90;;;;;;5028169;28;20200;-76
2023/01/02 08:53:51;;;;;;;13.98;11.57;;;6.00;99.90;;;;;;5019464;28;20169;-76
2023/01/02 08:56:22;;;;;;;14.70;11.38;;;6.00;99.90;;;;;;5013191;28;20188;-76
2023/01/02 08:58:53;;;;;;;13.75;11.25;;;6.10;99.90;;;;;;5012256;28;20170;-76
2023/01/02 09:01:19;;;;;;;16.65;12.68;;;6.20;99.90;;;;;;5010753;28;20359;-76
2023/01/02 09:03:45;;;;;;;14.02;12.23;;;6.30;99.90;;;;;;5013126;28;20292;-76
2023/01/02 09:06:10;;;;;;;16.70;12.50;;;6.40;99.90;;;;;;5025438;28;20652;-77
2023/01/02 09:08:36;;;;;;;16.38;11.38;;;7.00;99.90;;;;;;5021693;28;20195;-77
2023/01/02 09:11:18;;;;;;;13.05;11.68;;;7.80;99.90;;;;;;5015905;28;20201;-77
2023/01/02 09:13:44;;;;;;;12.93;11.13;;;8.40;99.90;;;;;;5014782;28;20204;-76
2023/01/02 09:16:10;;;;;;;13.75;10.48;;;8.90;99.90;;;;;;5015653;28;20740;-76
2023/01/02 09:18:37;;;;;;;15.73;10.52;;;9.40;99.90;;;;;;5014468;28;20327;-77
2023/01/02 09:21:04;;;;;;;12.10;10.32;;;9.80;99.90;;;;;;5015761;28;20189;-77
2023/01/02 09:23:31;;;;;;;11.48;10.30;;;10.10;99.90;;;;;;5020692;28;20239;-77
2023/01/02 09:25:58;;;;;;;13.38;11.45;;;10.00;99.90;;;;;;5013308;28;20272;-76
2023/01/02 09:28:24;;;;;;;11.25;10.00;;;9.90;99.90;;;;;;5018867;28;20175;-79
2023/01/02 09:30:49;;;;;;;13.48;10.90;;;9.80;99.90;;;;;;5021413;28;20186;-81
2023/01/02 09:33:15;;;;;;;14.38;11.10;;;9.70;99.90;;;;;;5024994;28;20201;-81
2023/01/02 09:35:41;;;;;;;11.90;10.68;;;10.20;99.90;;;;;;5028139;28;20640;-82
2023/01/02 09:38:07;;;;;;;10.48;9.40;;;11.60;99.90;;;;;;5024804;28;20631;-82
2023/01/02 09:40:34;;;;;;;10.95;9.85;;;13.30;99.90;;;;;;5020939;28;20672;-83
2023/01/02 09:43:00;;;;;;;10.32;9.15;;;14.90;99.90;;;;;;5014956;28;20181;-84
2023/01/02 09:45:27;;;;;;;10.10;9.13;;;16.20;99.90;;;;;;5021733;28;20220;-82
2023/01/02 09:47:57;;;;;;;9.30;8.40;;;17.20;99.90;;;;;;5021892;28;20404;-85
2023/01/02 09:50:29;;;;;;;10.75;8.55;;;18.20;99.90;;;;;;5025194;28;20205;-83
2023/01/02 09:52:59;;;;;;;9.07;8.27;;;18.60;97.30;;;;;;5023333;28;20189;-83
2023/01/02 09:55:31;;;;;;;10.23;8.70;;;19.10;94.40;;;;;;5024928;28;20185;-83
2023/01/02 09:58:29;;;;;;;8.50;7.70;;;19.60;92.60;;;;;;5024021;28;20296;-84
2023/01/02 10:00:55;;;;;;;9.50;8.60;;;20.40;90.30;;;;;;5028972;28;20207;-84
2023/01/02 10:03:24;;;;;;;9.27;8.38;;;21.00;85.30;;;;;;5022427;28;20544;-83
2023/01/02 10:06:11;;;;;;;9.32;8.40;;;21.60;82.70;;;;;;5033835;28;20204;-84
2023/01/02 10:08:36;;;;;;;8.80;8.00;;;21.60;80.00;;;;;;5019197;28;20204;-84
2023/01/02 10:11:30;;;;;;;9.55;7.80;;;22.10;77.60;;;;;;5036684;28;20196;-83
2023/01/02 10:14:17;;;;;;;9.15;8.30;;;22.70;75.40;;;;;;5015122;28;20200;-81
2023/01/02 10:16:49;;;;;;;10.35;9.27;;;23.30;71.50;;;;;;5020493;28;20178;-83
2023/01/02 10:19:21;;;;;;;8.23;7.00;;;23.70;69.60;;;;;;5023793;28;20207;-81
2023/01/02 10:21:48;;;;;;;9.73;8.25;;;23.60;69.30;;;;;;5021200;28;20251;-81
2023/01/02 10:24:42;;;;;;;8.52;7.72;;;24.20;67.60;;;;;;5025013;28;20204;-80
2023/01/02 10:27:21;;;;;;;9.57;8.52;;;24.60;66.40;;;;;;5027434;28;20212;-81
2023/01/02 10:30:00;;;;;;;7.70;6.65;;;25.10;63.40;;;;;;5016706;28;20212;-80
2023/01/02 10:32:26;;;;;;;8.10;7.40;;;25.50;62.60;;;;;;5018876;28;20223;-82
2023/01/02 10:34:57;;;;;;;8.18;7.38;;;25.90;61.00;;;;;;5020527;28;20173;-81
2023/01/02 10:37:25;;;;;;;7.60;6.90;;;25.80;60.20;;;;;;5025498;28;20176;-81
2023/01/02 10:39:51;;;;;;;9.02;7.57;;;26.20;59.70;;;;;;5018825;28;20185;-82
2023/01/02 10:42:17;;;;;;;8.70;7.90;;;26.70;58.40;;;;;;5021120;28;20204;-80
2023/01/02 10:44:45;;;;;;;7.95;7.25;;;26.90;58.40;;;;;;5022016;28;20185;-80
2023/01/02 10:47:41;;;;;;;8.48;7.00;;;27.10;57.00;;;;;;5021887;28;20185;-82
2023/01/02 10:50:16;;;;;;;8.25;7.43;;;27.20;56.50;;;;;;5019966;28;20587;-81
2023/01/02 10:52:53;;;;;;;7.57;6.88;;;27.10;56.00;;;;;;5031547;28;20681;-80
2023/01/02 10:55:41;;;;;;;8.15;7.40;;;26.80;57.60;;;;;;5015275;28;20173;-79
2023/01/02 10:58:20;;;;;;;7.95;7.32;;;26.30;57.10;;;;;;5011589;28;20181;-79
2023/01/02 11:00:49;;;;;;;7.60;6.90;;;26.20;57.10;;;;;;5017654;28;20189;-77
2023/01/02 11:03:19;;;;;;;7.95;7.13;;;25.80;58.20;;;;;;5027637;28;20255;-77
2023/01/02 11:05:54;;;;;;;7.80;7.10;;;26.10;58.30;;;;;;5012399;28;20672;-77
2023/01/02 11:08:40;;;;;;;7.50;6.80;;;26.80;57.40;;;;;;5012643;28;20202;-76
2023/01/02 11:11:16;;;;;;;8.30;7.50;;;26.80;56.50;;;;;;5015999;28;20204;-78
2023/01/02 11:13:48;;;;;;;7.93;7.22;;;27.20;56.20;;;;;;5013934;28;20197;-77
2023/01/02 11:16:15;;;;;;;7.65;6.95;;;27.20;55.90;;;;;;5023145;28;20183;-78
2023/01/02 11:18:55;;;;;;;7.93;7.22;;;26.70;55.30;;;;;;5009364;28;20189;-78
2023/01/02 11:21:31;;;;;;;8.10;7.30;;;26.00;56.90;;;;;;5014417;28;21004;-77
2023/01/02 11:24:07;;;;;;;8.38;7.53;;;24.70;59.00;;;;;;5014935;28;20215;-77
2023/01/02 11:26:33;;;;;;;8.45;7.75;;;23.70;60.80;;;;;;5010379;28;20274;-77
2023/01/02 11:29:08;;;;;;;8.30;7.50;;;23.00;61.70;;;;;;5021086;28;20205;-79
2023/01/02 11:31:34;;;;;;;9.48;8.00;;;22.40;63.70;;;;;;5027000;28;20196;-79
2023/01/02 11:34:16;;;;;;;8.45;7.75;;;21.90;65.10;;;;;;5019143;28;20551;-78
2023/01/02 11:36:43;;;;;;;8.23;7.43;;;21.40;66.10;;;;;;5012318;28;20200;-78
2023/01/02 11:39:21;;;;;;;7.32;6.72;;;21.90;65.80;;;;;;5023281;28;20276;-78
2023/01/02 11:45:01;;;;;;;7.45;6.75;;;21.70;64.60;;;;;;5017368;28;20231;-80
2023/01/02 11:47:32;;;;;;;9.00;8.10;;;21.00;66.60;;;;;;5013997;28;20207;-82
2023/01/02 11:49:59;;;;;;;7.45;6.85;;;20.00;69.10;;;;;;5019078;28;20200;-82
2023/01/02 11:52:49;;;;;;;8.90;8.10;;;19.20;71.90;;;;;;5021390;28;20706;-81
2023/01/02 11:55:36;;;;;;;8.40;7.60;;;18.30;73.20;;;;;;5020473;28;20184;-82
2023/01/02 11:58:15;;;;;;;8.65;7.88;;;17.90;75.50;;;;;;5010713;28;20165;-80
2023/01/02 12:00:43;;;;;;;7.72;7.03;;;17.40;78.10;;;;;;5017049;28;20200;-80
2023/01/02 12:03:16;;;;;;;8.68;7.72;;;17.20;79.50;;;;;;5019217;28;20187;-79
2023/01/02 12:06:09;;;;;;;9.32;8.43;;;17.20;80.50;;;;;;5011184;28;20188;-81
2023/01/02 12:08:59;;;;;;;8.95;8.05;;;17.10;80.50;;;;;;5010961;28;20195;-77
2023/01/02 12:11:27;;;;;;;7.95;7.25;;;17.40;81.00;;;;;;5013659;28;20204;-77
2023/01/02 12:14:09;;;;;;;10.30;8.38;;;18.00;80.90;;;;;;5009425;28;20264;-77
2023/01/02 12:16:49;;;;;;;9.65;7.68;;;18.60;79.00;;;;;;5009979;28;20185;-77
2023/01/02 12:19:27;;;;;;;8.38;7.22;;;18.80;78.60;;;;;;5010556;28;20259;-78
2023/01/02 12:21:58;;;;;;;9.80;8.07;;;18.70;78.90;;;;;;5010348;28;20204;-77
2023/01/02 12:24:51;;;;;;;8.68;7.75;;;18.20;78.90;;;;;;5014031;28;20192;-77
2023/01/02 12:27:47;;;;;;;8.30;7.50;;;17.50;80.90;;;;;;5012243;28;20236;-77
2023/01/02 12:30:17;;;;;;;10.68;8.55;;;17.00;83.30;;;;;;5005758;28;20204;-77
2023/01/02 12:33:04;;;;;;;8.85;8.05;;;16.50;84.90;;;;;;5011094;28;20212;-77
2023/01/02 12:36:05;;;;;;;9.00;8.20;;;16.20;87.50;;;;;;5011904;28;20173;-80
2023/01/02 12:39:09;;;;;;;8.85;8.05;;;15.90;88.10;;;;;;5008017;28;20200;-78
2023/01/02 12:41:49;;;;;;;9.00;8.10;;;15.60;90.00;;;;;;5018797;28;20267;-79
2023/01/02 12:44:38;;;;;;;9.05;8.15;;;15.30;91.00;;;;;;5018412;28;20181;-78
2023/01/02 12:47:14;;;;;;;9.57;8.57;;;15.00;92.10;;;;;;5019649;28;20181;-78
2023/01/02 12:49:55;;;;;;;9.18;8.25;;;14.50;93.40;;;;;;5018057;28;20212;-78
2023/01/02 12:52:45;;;;;;;9.45;8.55;;;14.30;94.30;;;;;;5016675;28;20283;-79
2023/01/02 12:55:16;;;;;;;9.32;8.43;;;14.20;95.30;;;;;;5018251;28;20296;-79
2023/01/02 12:57:55;;;;;;;10.88;8.13;;;14.10;96.40;;;;;;5021575;28;20193;-79
2023/01/02 13:00:47;;;;;;;10.50;8.60;;;14.00;97.30;;;;;;5013864;28;20188;-78
2023/01/02 13:03:26;;;;;;;11.52;8.90;;;13.80;98.00;;;;;;5018578;28;20231;-78